sensor_id;sensor_type;location;lat;lon;timestamp;P1;durP1;ratioP1;P2;durP2;ratioP2
1136;SDS011;557;48.466;7.950;2022-09-09T00:02:35;5.60;;;5.20;;
1136;SDS011;557;48.466;7.950;2022-09-09T00:05:24;5.27;;;4.80;;
1136;SDS011;557;48.466;7.950;2022-09-09T00:08:18;5.30;;;4.80;;
1136;SDS011;557;48.466;7.950;2022-09-09T00:11:07;5.50;;;5.20;;
1136;SDS011;557;48.466;7.950;2022-09-09T00:13:58;5.90;;;5.40;;
1136;SDS011;557;48.466;7.950;2022-09-09T00:16:50;5.27;;;4.97;;
1136;SDS011;557;48.466;7.950;2022-09-09T00:19:41;5.20;;;4.90;;
1136;SDS011;557;48.466;7.950;2022-09-09T00:22:34;4.90;;;4.50;;
1136;SDS011;557;48.466;7.950;2022-09-09T00:25:24;5.60;;;4.03;;
1136;SDS011;557;48.466;7.950;2022-09-09T00:28:16;6.27;;;3.50;;
1136;SDS011;557;48.466;7.950;2022-09-09T00:31:07;3.20;;;2.47;;
1136;SDS011;557;48.466;7.950;2022-09-09T00:33:58;3.40;;;2.47;;
1136;SDS011;557;48.466;7.950;2022-09-09T00:36:48;2.93;;;2.30;;
1136;SDS011;557;48.466;7.950;2022-09-09T00:39:37;7.73;;;3.13;;
1136;SDS011;557;48.466;7.950;2022-09-09T00:42:30;3.43;;;2.40;;
1136;SDS011;557;48.466;7.950;2022-09-09T00:45:33;4.13;;;2.40;;
1136;SDS011;557;48.466;7.950;2022-09-09T00:48:35;3.67;;;2.40;;
1136;SDS011;557;48.466;7.950;2022-09-09T00:51:35;3.00;;;2.40;;
1136;SDS011;557;48.466;7.950;2022-09-09T00:54:33;3.43;;;2.73;;
1136;SDS011;557;48.466;7.950;2022-09-09T00:57:25;5.20;;;2.87;;
1136;SDS011;557;48.466;7.950;2022-09-09T01:00:21;4.53;;;2.57;;
1136;SDS011;557;48.466;7.950;2022-09-09T01:03:13;4.50;;;2.60;;
1136;SDS011;557;48.466;7.950;2022-09-09T01:06:12;3.30;;;2.50;;
1136;SDS011;557;48.466;7.950;2022-09-09T01:09:14;2.87;;;2.53;;
1136;SDS011;557;48.466;7.950;2022-09-09T01:12:07;2.57;;;2.27;;
1136;SDS011;557;48.466;7.950;2022-09-09T01:14:58;2.87;;;2.23;;
1136;SDS011;557;48.466;7.950;2022-09-09T01:17:53;3.00;;;2.17;;
1136;SDS011;557;48.466;7.950;2022-09-09T01:20:47;2.87;;;2.67;;
1136;SDS011;557;48.466;7.950;2022-09-09T01:23:45;4.73;;;2.30;;
1136;SDS011;557;48.466;7.950;2022-09-09T01:26:46;2.70;;;2.50;;
1136;SDS011;557;48.466;7.950;2022-09-09T01:29:35;2.80;;;2.60;;
1136;SDS011;557;48.466;7.950;2022-09-09T01:32:37;2.77;;;2.57;;
1136;SDS011;557;48.466;7.950;2022-09-09T01:35:29;2.57;;;2.37;;
1136;SDS011;557;48.466;7.950;2022-09-09T01:38:21;2.80;;;2.60;;
1136;SDS011;557;48.466;7.950;2022-09-09T01:41:08;2.77;;;2.57;;
1136;SDS011;557;48.466;7.950;2022-09-09T01:43:55;3.80;;;2.80;;
1136;SDS011;557;48.466;7.950;2022-09-09T01:46:41;3.50;;;2.97;;
1136;SDS011;557;48.466;7.950;2022-09-09T01:49:27;3.00;;;2.80;;
1136;SDS011;557;48.466;7.950;2022-09-09T01:52:13;3.60;;;3.17;;
1136;SDS011;557;48.466;7.950;2022-09-09T01:54:58;3.40;;;3.10;;
1136;SDS011;557;48.466;7.950;2022-09-09T01:57:45;2.93;;;2.73;;
1136;SDS011;557;48.466;7.950;2022-09-09T02:00:44;3.57;;;2.83;;
1136;SDS011;557;48.466;7.950;2022-09-09T02:03:39;3.20;;;2.90;;
1136;SDS011;557;48.466;7.950;2022-09-09T02:06:30;5.70;;;2.70;;
1136;SDS011;557;48.466;7.950;2022-09-09T02:09:19;2.30;;;2.10;;
1136;SDS011;557;48.466;7.950;2022-09-09T02:12:11;2.50;;;2.30;;
1136;SDS011;557;48.466;7.950;2022-09-09T02:15:03;3.87;;;2.20;;
1136;SDS011;557;48.466;7.950;2022-09-09T02:17:57;3.13;;;2.93;;
1136;SDS011;557;48.466;7.950;2022-09-09T02:20:45;13.30;;;3.80;;
1136;SDS011;557;48.466;7.950;2022-09-09T02:23:32;11.77;;;3.60;;
1136;SDS011;557;48.466;7.950;2022-09-09T02:26:19;16.77;;;3.70;;
1136;SDS011;557;48.466;7.950;2022-09-09T02:29:08;5.37;;;3.03;;
1136;SDS011;557;48.466;7.950;2022-09-09T02:31:56;5.30;;;2.90;;
1136;SDS011;557;48.466;7.950;2022-09-09T02:34:48;6.80;;;3.33;;
1136;SDS011;557;48.466;7.950;2022-09-09T02:37:39;8.20;;;3.03;;
1136;SDS011;557;48.466;7.950;2022-09-09T02:40:26;6.97;;;2.80;;
1136;SDS011;557;48.466;7.950;2022-09-09T02:43:13;5.93;;;2.80;;
1136;SDS011;557;48.466;7.950;2022-09-09T02:46:02;7.37;;;2.90;;
1136;SDS011;557;48.466;7.950;2022-09-09T02:48:55;4.70;;;2.70;;
1136;SDS011;557;48.466;7.950;2022-09-09T02:51:50;6.90;;;2.80;;
1136;SDS011;557;48.466;7.950;2022-09-09T02:54:41;7.13;;;2.80;;
1136;SDS011;557;48.466;7.950;2022-09-09T02:57:28;5.00;;;2.57;;
1136;SDS011;557;48.466;7.950;2022-09-09T03:00:22;4.60;;;2.20;;
1136;SDS011;557;48.466;7.950;2022-09-09T03:03:09;6.17;;;2.40;;
1136;SDS011;557;48.466;7.950;2022-09-09T03:05:55;5.17;;;2.80;;
1136;SDS011;557;48.466;7.950;2022-09-09T03:08:42;6.70;;;2.80;;
1136;SDS011;557;48.466;7.950;2022-09-09T03:11:28;5.70;;;2.80;;
1136;SDS011;557;48.466;7.950;2022-09-09T03:14:14;5.43;;;3.10;;
1136;SDS011;557;48.466;7.950;2022-09-09T03:17:00;5.27;;;2.80;;
1136;SDS011;557;48.466;7.950;2022-09-09T03:19:46;5.33;;;2.80;;
1136;SDS011;557;48.466;7.950;2022-09-09T03:22:33;5.67;;;2.90;;
1136;SDS011;557;48.466;7.950;2022-09-09T03:25:21;5.10;;;3.07;;
1136;SDS011;557;48.466;7.950;2022-09-09T03:28:07;6.57;;;3.10;;
1136;SDS011;557;48.466;7.950;2022-09-09T03:30:57;5.40;;;3.17;;
1136;SDS011;557;48.466;7.950;2022-09-09T03:33:43;6.10;;;3.00;;
1136;SDS011;557;48.466;7.950;2022-09-09T03:36:28;5.90;;;3.10;;
1136;SDS011;557;48.466;7.950;2022-09-09T03:39:14;7.20;;;3.00;;
1136;SDS011;557;48.466;7.950;2022-09-09T03:42:01;5.30;;;2.80;;
1136;SDS011;557;48.466;7.950;2022-09-09T03:44:47;10.37;;;3.27;;
1136;SDS011;557;48.466;7.950;2022-09-09T03:47:34;5.17;;;2.50;;
1136;SDS011;557;48.466;7.950;2022-09-09T03:50:20;6.13;;;2.70;;
1136;SDS011;557;48.466;7.950;2022-09-09T03:53:05;5.60;;;2.50;;
1136;SDS011;557;48.466;7.950;2022-09-09T03:55:51;6.33;;;2.80;;
1136;SDS011;557;48.466;7.950;2022-09-09T03:58:40;5.73;;;2.60;;
1136;SDS011;557;48.466;7.950;2022-09-09T04:01:26;6.70;;;2.90;;
1136;SDS011;557;48.466;7.950;2022-09-09T04:04:13;8.10;;;2.93;;
1136;SDS011;557;48.466;7.950;2022-09-09T04:06:58;6.70;;;2.70;;
1136;SDS011;557;48.466;7.950;2022-09-09T04:09:44;6.00;;;3.00;;
1136;SDS011;557;48.466;7.950;2022-09-09T04:12:29;7.23;;;2.70;;
1136;SDS011;557;48.466;7.950;2022-09-09T04:15:16;7.63;;;3.07;;
1136;SDS011;557;48.466;7.950;2022-09-09T04:18:03;9.70;;;2.40;;
1136;SDS011;557;48.466;7.950;2022-09-09T04:20:50;6.37;;;2.47;;
1136;SDS011;557;48.466;7.950;2022-09-09T04:23:37;20.43;;;2.80;;
1136;SDS011;557;48.466;7.950;2022-09-09T04:26:23;9.33;;;2.47;;
1136;SDS011;557;48.466;7.950;2022-09-09T04:29:09;6.03;;;2.20;;
1136;SDS011;557;48.466;7.950;2022-09-09T04:31:55;10.10;;;2.40;;
1136;SDS011;557;48.466;7.950;2022-09-09T04:34:41;10.40;;;2.53;;
1136;SDS011;557;48.466;7.950;2022-09-09T04:37:28;10.60;;;2.23;;
1136;SDS011;557;48.466;7.950;2022-09-09T04:40:14;6.03;;;2.10;;
1136;SDS011;557;48.466;7.950;2022-09-09T04:42:59;5.30;;;2.13;;
1136;SDS011;557;48.466;7.950;2022-09-09T04:45:46;4.80;;;1.87;;
1136;SDS011;557;48.466;7.950;2022-09-09T04:48:34;5.23;;;1.90;;
1136;SDS011;557;48.466;7.950;2022-09-09T04:51:20;4.60;;;1.73;;
1136;SDS011;557;48.466;7.950;2022-09-09T04:54:06;5.97;;;1.93;;
1136;SDS011;557;48.466;7.950;2022-09-09T04:56:51;5.10;;;1.90;;
1136;SDS011;557;48.466;7.950;2022-09-09T04:59:37;5.57;;;1.80;;
1136;SDS011;557;48.466;7.950;2022-09-09T05:02:23;5.70;;;1.80;;
1136;SDS011;557;48.466;7.950;2022-09-09T05:05:09;5.10;;;1.90;;
1136;SDS011;557;48.466;7.950;2022-09-09T05:08:00;6.00;;;1.83;;
1136;SDS011;557;48.466;7.950;2022-09-09T05:10:46;5.10;;;2.10;;
1136;SDS011;557;48.466;7.950;2022-09-09T05:13:32;4.80;;;1.57;;
1136;SDS011;557;48.466;7.950;2022-09-09T05:16:18;6.37;;;1.70;;
1136;SDS011;557;48.466;7.950;2022-09-09T05:19:06;7.40;;;1.93;;
1136;SDS011;557;48.466;7.950;2022-09-09T05:21:54;5.47;;;1.97;;
1136;SDS011;557;48.466;7.950;2022-09-09T05:24:40;6.13;;;1.90;;
1136;SDS011;557;48.466;7.950;2022-09-09T05:27:26;6.63;;;1.90;;
1136;SDS011;557;48.466;7.950;2022-09-09T05:30:11;5.03;;;1.97;;
1136;SDS011;557;48.466;7.950;2022-09-09T05:32:57;6.77;;;1.90;;
1136;SDS011;557;48.466;7.950;2022-09-09T05:35:42;7.80;;;2.00;;
1136;SDS011;557;48.466;7.950;2022-09-09T05:38:29;6.00;;;2.30;;
1136;SDS011;557;48.466;7.950;2022-09-09T05:41:16;5.30;;;1.90;;
1136;SDS011;557;48.466;7.950;2022-09-09T05:44:03;5.27;;;1.70;;
1136;SDS011;557;48.466;7.950;2022-09-09T05:46:49;5.10;;;1.87;;
1136;SDS011;557;48.466;7.950;2022-09-09T05:49:35;5.30;;;1.90;;
1136;SDS011;557;48.466;7.950;2022-09-09T05:52:21;5.83;;;2.17;;
1136;SDS011;557;48.466;7.950;2022-09-09T05:55:09;4.83;;;1.80;;
1136;SDS011;557;48.466;7.950;2022-09-09T05:57:54;4.77;;;1.70;;
1136;SDS011;557;48.466;7.950;2022-09-09T06:00:39;6.13;;;2.00;;
1136;SDS011;557;48.466;7.950;2022-09-09T06:03:25;5.47;;;1.80;;
1136;SDS011;557;48.466;7.950;2022-09-09T06:06:11;4.60;;;1.50;;
1136;SDS011;557;48.466;7.950;2022-09-09T06:08:58;5.67;;;2.07;;
1136;SDS011;557;48.466;7.950;2022-09-09T06:11:45;6.03;;;2.20;;
1136;SDS011;557;48.466;7.950;2022-09-09T06:14:31;5.70;;;2.17;;
1136;SDS011;557;48.466;7.950;2022-09-09T06:17:16;8.30;;;2.53;;
1136;SDS011;557;48.466;7.950;2022-09-09T06:20:03;6.33;;;2.03;;
1136;SDS011;557;48.466;7.950;2022-09-09T06:22:49;6.00;;;1.90;;
1136;SDS011;557;48.466;7.950;2022-09-09T06:25:35;5.03;;;2.20;;
1136;SDS011;557;48.466;7.950;2022-09-09T06:28:25;6.30;;;2.37;;
1136;SDS011;557;48.466;7.950;2022-09-09T06:31:12;4.67;;;1.87;;
1136;SDS011;557;48.466;7.950;2022-09-09T06:33:58;6.23;;;2.37;;
1136;SDS011;557;48.466;7.950;2022-09-09T06:36:44;5.90;;;1.73;;
1136;SDS011;557;48.466;7.950;2022-09-09T06:39:30;5.10;;;2.00;;
1136;SDS011;557;48.466;7.950;2022-09-09T06:42:16;5.10;;;2.20;;
1136;SDS011;557;48.466;7.950;2022-09-09T06:45:03;6.00;;;2.00;;
1136;SDS011;557;48.466;7.950;2022-09-09T06:47:49;5.80;;;2.50;;
1136;SDS011;557;48.466;7.950;2022-09-09T06:50:35;5.83;;;2.53;;
1136;SDS011;557;48.466;7.950;2022-09-09T06:53:21;4.87;;;2.20;;
1136;SDS011;557;48.466;7.950;2022-09-09T06:56:17;5.57;;;2.63;;
1136;SDS011;557;48.466;7.950;2022-09-09T06:59:05;5.43;;;2.73;;
1136;SDS011;557;48.466;7.950;2022-09-09T07:01:54;5.60;;;2.70;;
1136;SDS011;557;48.466;7.950;2022-09-09T07:04:40;4.97;;;2.20;;
1136;SDS011;557;48.466;7.950;2022-09-09T07:07:26;5.60;;;2.23;;
1136;SDS011;557;48.466;7.950;2022-09-09T07:10:12;5.60;;;1.90;;
1136;SDS011;557;48.466;7.950;2022-09-09T07:12:58;6.40;;;2.70;;
1136;SDS011;557;48.466;7.950;2022-09-09T07:15:43;4.50;;;2.10;;
1136;SDS011;557;48.466;7.950;2022-09-09T07:18:30;5.43;;;2.40;;
1136;SDS011;557;48.466;7.950;2022-09-09T07:21:16;4.97;;;2.30;;
1136;SDS011;557;48.466;7.950;2022-09-09T07:24:04;5.83;;;2.30;;
1136;SDS011;557;48.466;7.950;2022-09-09T07:26:51;6.13;;;2.40;;
1136;SDS011;557;48.466;7.950;2022-09-09T07:29:36;5.53;;;2.23;;
1136;SDS011;557;48.466;7.950;2022-09-09T07:32:22;5.63;;;2.03;;
1136;SDS011;557;48.466;7.950;2022-09-09T07:35:10;5.10;;;2.20;;
1136;SDS011;557;48.466;7.950;2022-09-09T07:37:56;4.70;;;2.10;;
1136;SDS011;557;48.466;7.950;2022-09-09T07:40:42;8.03;;;2.30;;
1136;SDS011;557;48.466;7.950;2022-09-09T07:43:28;5.10;;;2.30;;
1136;SDS011;557;48.466;7.950;2022-09-09T07:46:14;4.93;;;2.13;;
1136;SDS011;557;48.466;7.950;2022-09-09T07:49:03;8.20;;;2.27;;
1136;SDS011;557;48.466;7.950;2022-09-09T07:51:50;5.10;;;2.23;;
1136;SDS011;557;48.466;7.950;2022-09-09T07:54:35;4.73;;;2.20;;
1136;SDS011;557;48.466;7.950;2022-09-09T07:57:21;5.60;;;2.77;;
1136;SDS011;557;48.466;7.950;2022-09-09T08:00:07;5.10;;;2.50;;
1136;SDS011;557;48.466;7.950;2022-09-09T08:02:54;5.80;;;2.73;;
1136;SDS011;557;48.466;7.950;2022-09-09T08:05:40;5.00;;;2.70;;
1136;SDS011;557;48.466;7.950;2022-09-09T08:08:27;4.80;;;2.80;;
1136;SDS011;557;48.466;7.950;2022-09-09T08:11:14;5.70;;;2.70;;
1136;SDS011;557;48.466;7.950;2022-09-09T08:14:00;6.63;;;2.97;;
1136;SDS011;557;48.466;7.950;2022-09-09T08:16:46;7.90;;;3.33;;
1136;SDS011;557;48.466;7.950;2022-09-09T08:19:42;5.40;;;2.80;;
1136;SDS011;557;48.466;7.950;2022-09-09T08:22:29;10.20;;;3.47;;
1136;SDS011;557;48.466;7.950;2022-09-09T08:25:16;5.40;;;2.80;;
1136;SDS011;557;48.466;7.950;2022-09-09T08:28:02;6.80;;;3.70;;
1136;SDS011;557;48.466;7.950;2022-09-09T08:30:48;5.23;;;3.53;;
1136;SDS011;557;48.466;7.950;2022-09-09T08:33:34;5.00;;;4.00;;
1136;SDS011;557;48.466;7.950;2022-09-09T08:36:22;8.07;;;4.20;;
1136;SDS011;557;48.466;7.950;2022-09-09T08:39:10;8.07;;;4.33;;
1136;SDS011;557;48.466;7.950;2022-09-09T08:42:08;4.80;;;4.30;;
1136;SDS011;557;48.466;7.950;2022-09-09T08:45:18;6.90;;;4.67;;
1136;SDS011;557;48.466;7.950;2022-09-09T08:48:15;5.47;;;4.43;;
1136;SDS011;557;48.466;7.950;2022-09-09T08:51:15;5.27;;;3.80;;
1136;SDS011;557;48.466;7.950;2022-09-09T08:54:02;4.93;;;4.40;;
1136;SDS011;557;48.466;7.950;2022-09-09T08:56:49;6.10;;;5.20;;
1136;SDS011;557;48.466;7.950;2022-09-09T08:59:37;6.40;;;5.37;;
1136;SDS011;557;48.466;7.950;2022-09-09T09:02:24;5.43;;;4.93;;
1136;SDS011;557;48.466;7.950;2022-09-09T09:05:16;5.83;;;4.90;;
1136;SDS011;557;48.466;7.950;2022-09-09T09:08:11;6.23;;;4.77;;
1136;SDS011;557;48.466;7.950;2022-09-09T09:11:05;8.43;;;4.70;;
1136;SDS011;557;48.466;7.950;2022-09-09T09:13:52;5.43;;;3.83;;
1136;SDS011;557;48.466;7.950;2022-09-09T09:16:45;5.00;;;3.33;;
1136;SDS011;557;48.466;7.950;2022-09-09T09:19:36;5.27;;;3.23;;
1136;SDS011;557;48.466;7.950;2022-09-09T09:22:26;5.07;;;3.60;;
1136;SDS011;557;48.466;7.950;2022-09-09T09:25:21;7.13;;;3.27;;
1136;SDS011;557;48.466;7.950;2022-09-09T09:28:10;7.27;;;3.87;;
1136;SDS011;557;48.466;7.950;2022-09-09T09:31:03;5.10;;;3.30;;
1136;SDS011;557;48.466;7.950;2022-09-09T09:33:52;5.03;;;2.80;;
1136;SDS011;557;48.466;7.950;2022-09-09T09:36:39;4.30;;;2.70;;
1136;SDS011;557;48.466;7.950;2022-09-09T09:39:30;4.67;;;2.10;;
1136;SDS011;557;48.466;7.950;2022-09-09T09:42:19;5.70;;;2.20;;
1136;SDS011;557;48.466;7.950;2022-09-09T09:45:13;4.63;;;2.37;;
1136;SDS011;557;48.466;7.950;2022-09-09T09:48:04;6.90;;;2.37;;
1136;SDS011;557;48.466;7.950;2022-09-09T09:50:55;4.90;;;1.40;;
1136;SDS011;557;48.466;7.950;2022-09-09T09:53:44;9.03;;;8.53;;
1136;SDS011;557;48.466;7.950;2022-09-09T09:56:30;6.60;;;6.10;;
1136;SDS011;557;48.466;7.950;2022-09-09T09:59:20;7.30;;;6.83;;
1136;SDS011;557;48.466;7.950;2022-09-09T10:02:14;5.00;;;4.70;;
1136;SDS011;557;48.466;7.950;2022-09-09T10:05:03;3.87;;;3.57;;
1136;SDS011;557;48.466;7.950;2022-09-09T10:08:01;3.00;;;2.70;;
1136;SDS011;557;48.466;7.950;2022-09-09T10:14:04;1.57;;;1.47;;
1136;SDS011;557;48.466;7.950;2022-09-09T10:17:05;3.77;;;3.57;;
1136;SDS011;557;48.466;7.950;2022-09-09T10:20:04;3.97;;;3.57;;
1136;SDS011;557;48.466;7.950;2022-09-09T10:23:08;5.50;;;4.73;;
1136;SDS011;557;48.466;7.950;2022-09-09T10:26:08;4.43;;;4.23;;
1136;SDS011;557;48.466;7.950;2022-09-09T10:29:07;5.03;;;4.40;;
1136;SDS011;557;48.466;7.950;2022-09-09T10:32:11;3.77;;;3.47;;
1136;SDS011;557;48.466;7.950;2022-09-09T10:35:15;3.97;;;3.67;;
1136;SDS011;557;48.466;7.950;2022-09-09T10:38:15;4.70;;;4.33;;
1136;SDS011;557;48.466;7.950;2022-09-09T10:44:19;4.60;;;4.23;;
1136;SDS011;557;48.466;7.950;2022-09-09T10:50:43;5.23;;;4.80;;
1136;SDS011;557;48.466;7.950;2022-09-09T10:53:40;5.77;;;5.27;;
1136;SDS011;557;48.466;7.950;2022-09-09T10:56:36;6.30;;;5.90;;
1136;SDS011;557;48.466;7.950;2022-09-09T10:59:25;5.27;;;4.97;;
1136;SDS011;557;48.466;7.950;2022-09-09T11:02:15;7.60;;;7.20;;
1136;SDS011;557;48.466;7.950;2022-09-09T11:05:05;5.33;;;4.93;;
1136;SDS011;557;48.466;7.950;2022-09-09T11:07:55;6.23;;;5.80;;
1136;SDS011;557;48.466;7.950;2022-09-09T11:10:46;4.73;;;4.43;;
1136;SDS011;557;48.466;7.950;2022-09-09T11:13:42;5.20;;;4.90;;
1136;SDS011;557;48.466;7.950;2022-09-09T11:16:34;5.53;;;5.03;;
1136;SDS011;557;48.466;7.950;2022-09-09T11:19:27;3.30;;;2.83;;
1136;SDS011;557;48.466;7.950;2022-09-09T11:22:21;5.27;;;4.90;;
1136;SDS011;557;48.466;7.950;2022-09-09T11:25:14;6.40;;;5.83;;
1136;SDS011;557;48.466;7.950;2022-09-09T11:31:30;9.40;;;8.90;;
1136;SDS011;557;48.466;7.950;2022-09-09T11:34:31;10.00;;;9.50;;
1136;SDS011;557;48.466;7.950;2022-09-09T11:37:37;10.93;;;10.23;;
1136;SDS011;557;48.466;7.950;2022-09-09T11:40:38;10.63;;;10.07;;
1136;SDS011;557;48.466;7.950;2022-09-09T11:43:26;9.83;;;9.13;;
1136;SDS011;557;48.466;7.950;2022-09-09T11:46:16;10.00;;;9.50;;
1136;SDS011;557;48.466;7.950;2022-09-09T11:49:04;9.97;;;9.37;;
1136;SDS011;557;48.466;7.950;2022-09-09T11:51:51;9.77;;;9.27;;
1136;SDS011;557;48.466;7.950;2022-09-09T11:54:44;10.20;;;9.70;;
1136;SDS011;557;48.466;7.950;2022-09-09T11:57:33;10.90;;;10.40;;
1136;SDS011;557;48.466;7.950;2022-09-09T12:00:31;10.00;;;9.60;;
1136;SDS011;557;48.466;7.950;2022-09-09T12:03:38;9.90;;;9.40;;
1136;SDS011;557;48.466;7.950;2022-09-09T12:06:28;9.87;;;9.37;;
1136;SDS011;557;48.466;7.950;2022-09-09T12:09:21;9.83;;;9.43;;
1136;SDS011;557;48.466;7.950;2022-09-09T12:12:21;9.53;;;9.03;;
1136;SDS011;557;48.466;7.950;2022-09-09T12:15:24;9.50;;;8.90;;
1136;SDS011;557;48.466;7.950;2022-09-09T12:18:14;9.90;;;9.40;;
1136;SDS011;557;48.466;7.950;2022-09-09T12:21:10;9.87;;;9.27;;
1136;SDS011;557;48.466;7.950;2022-09-09T12:24:04;11.97;;;11.43;;
1136;SDS011;557;48.466;7.950;2022-09-09T12:26:55;10.80;;;10.10;;
1136;SDS011;557;48.466;7.950;2022-09-09T12:29:47;13.00;;;12.20;;
1136;SDS011;557;48.466;7.950;2022-09-09T12:32:40;11.40;;;10.80;;
1136;SDS011;557;48.466;7.950;2022-09-09T12:35:28;11.63;;;11.00;;
1136;SDS011;557;48.466;7.950;2022-09-09T12:38:17;12.43;;;11.83;;
1136;SDS011;557;48.466;7.950;2022-09-09T12:41:16;13.13;;;12.48;;
1136;SDS011;557;48.466;7.950;2022-09-09T12:44:04;14.20;;;13.05;;
1136;SDS011;557;48.466;7.950;2022-09-09T12:46:51;15.10;;;14.48;;
1136;SDS011;557;48.466;7.950;2022-09-09T12:49:38;12.90;;;12.25;;
1136;SDS011;557;48.466;7.950;2022-09-09T12:52:27;13.05;;;12.45;;
1136;SDS011;557;48.466;7.950;2022-09-09T12:55:19;14.32;;;13.65;;
1136;SDS011;557;48.466;7.950;2022-09-09T12:58:11;13.82;;;13.13;;
1136;SDS011;557;48.466;7.950;2022-09-09T13:01:02;11.38;;;10.88;;
1136;SDS011;557;48.466;7.950;2022-09-09T13:03:49;14.05;;;13.35;;
1136;SDS011;557;48.466;7.950;2022-09-09T13:06:34;13.67;;;13.07;;
1136;SDS011;557;48.466;7.950;2022-09-09T13:09:20;15.77;;;14.97;;
1136;SDS011;557;48.466;7.950;2022-09-09T13:12:10;15.00;;;14.40;;
1136;SDS011;557;48.466;7.950;2022-09-09T13:14:59;14.17;;;13.47;;
1136;SDS011;557;48.466;7.950;2022-09-09T13:17:49;13.27;;;12.47;;
1136;SDS011;557;48.466;7.950;2022-09-09T13:20:37;13.80;;;13.10;;
1136;SDS011;557;48.466;7.950;2022-09-09T13:23:24;12.50;;;11.87;;
1136;SDS011;557;48.466;7.950;2022-09-09T13:26:20;13.57;;;12.87;;
1136;SDS011;557;48.466;7.950;2022-09-09T13:29:16;13.90;;;13.30;;
1136;SDS011;557;48.466;7.950;2022-09-09T13:32:03;13.13;;;12.43;;
1136;SDS011;557;48.466;7.950;2022-09-09T13:34:51;13.33;;;12.63;;
1136;SDS011;557;48.466;7.950;2022-09-09T13:37:39;14.37;;;13.67;;
1136;SDS011;557;48.466;7.950;2022-09-09T13:40:25;12.93;;;12.23;;
1136;SDS011;557;48.466;7.950;2022-09-09T13:43:13;15.20;;;14.50;;
1136;SDS011;557;48.466;7.950;2022-09-09T13:46:05;16.60;;;15.90;;
1136;SDS011;557;48.466;7.950;2022-09-09T13:49:18;15.63;;;14.80;;
1136;SDS011;557;48.466;7.950;2022-09-09T13:52:08;13.30;;;12.70;;
1136;SDS011;557;48.466;7.950;2022-09-09T13:54:55;14.60;;;13.90;;
1136;SDS011;557;48.466;7.950;2022-09-09T13:57:49;15.23;;;14.63;;
1136;SDS011;557;48.466;7.950;2022-09-09T14:00:36;15.50;;;14.70;;
1136;SDS011;557;48.466;7.950;2022-09-09T14:03:23;13.15;;;12.50;;
1136;SDS011;557;48.466;7.950;2022-09-09T14:06:09;14.80;;;14.02;;
1136;SDS011;557;48.466;7.950;2022-09-09T14:08:55;15.18;;;14.38;;
1136;SDS011;557;48.466;7.950;2022-09-09T14:11:40;12.98;;;12.27;;
1136;SDS011;557;48.466;7.950;2022-09-09T14:14:26;16.47;;;15.40;;
1136;SDS011;557;48.466;7.950;2022-09-09T14:17:12;14.50;;;13.80;;
1136;SDS011;557;48.466;7.950;2022-09-09T14:19:59;15.27;;;14.57;;
1136;SDS011;557;48.466;7.950;2022-09-09T14:22:45;14.27;;;13.60;;
1136;SDS011;557;48.466;7.950;2022-09-09T14:25:31;14.13;;;13.53;;
1136;SDS011;557;48.466;7.950;2022-09-09T14:28:17;12.00;;;11.40;;
1136;SDS011;557;48.466;7.950;2022-09-09T14:31:03;13.70;;;13.10;;
1136;SDS011;557;48.466;7.950;2022-09-09T14:33:49;14.17;;;13.30;;
1136;SDS011;557;48.466;7.950;2022-09-09T14:36:37;15.27;;;14.37;;
1136;SDS011;557;48.466;7.950;2022-09-09T14:39:24;16.13;;;15.23;;
1136;SDS011;557;48.466;7.950;2022-09-09T14:42:09;15.90;;;15.10;;
1136;SDS011;557;48.466;7.950;2022-09-09T14:44:55;14.67;;;14.03;;
1136;SDS011;557;48.466;7.950;2022-09-09T14:47:41;11.40;;;10.90;;
1136;SDS011;557;48.466;7.950;2022-09-09T14:50:26;13.37;;;12.77;;
1136;SDS011;557;48.466;7.950;2022-09-09T14:53:14;12.00;;;11.50;;
1136;SDS011;557;48.466;7.950;2022-09-09T14:56:05;12.90;;;12.30;;
1136;SDS011;557;48.466;7.950;2022-09-09T14:58:52;11.67;;;11.07;;
1136;SDS011;557;48.466;7.950;2022-09-09T15:01:39;10.40;;;9.90;;
1136;SDS011;557;48.466;7.950;2022-09-09T15:04:25;10.17;;;9.77;;
1136;SDS011;557;48.466;7.950;2022-09-09T15:07:11;10.43;;;10.03;;
1136;SDS011;557;48.466;7.950;2022-09-09T15:09:58;9.47;;;9.00;;
1136;SDS011;557;48.466;7.950;2022-09-09T15:12:44;10.13;;;9.63;;
1136;SDS011;557;48.466;7.950;2022-09-09T15:15:30;9.43;;;9.00;;
1136;SDS011;557;48.466;7.950;2022-09-09T15:18:16;9.97;;;9.47;;
1136;SDS011;557;48.466;7.950;2022-09-09T15:21:02;10.20;;;9.70;;
1136;SDS011;557;48.466;7.950;2022-09-09T15:23:48;10.73;;;10.20;;
1136;SDS011;557;48.466;7.950;2022-09-09T15:26:36;10.93;;;10.40;;
1136;SDS011;557;48.466;7.950;2022-09-09T15:29:23;11.33;;;10.87;;
1136;SDS011;557;48.466;7.950;2022-09-09T15:32:09;11.23;;;10.73;;
1136;SDS011;557;48.466;7.950;2022-09-09T15:34:54;11.63;;;10.93;;
1136;SDS011;557;48.466;7.950;2022-09-09T15:37:40;11.50;;;11.00;;
1136;SDS011;557;48.466;7.950;2022-09-09T15:40:26;11.00;;;10.40;;
1136;SDS011;557;48.466;7.950;2022-09-09T15:43:14;12.00;;;11.50;;
1136;SDS011;557;48.466;7.950;2022-09-09T15:46:02;12.97;;;12.40;;
1136;SDS011;557;48.466;7.950;2022-09-09T15:49:08;12.30;;;11.67;;
1136;SDS011;557;48.466;7.950;2022-09-09T15:51:56;12.70;;;12.00;;
1136;SDS011;557;48.466;7.950;2022-09-09T15:54:43;12.27;;;11.77;;
1136;SDS011;557;48.466;7.950;2022-09-09T15:57:29;11.70;;;11.20;;
1136;SDS011;557;48.466;7.950;2022-09-09T16:00:16;11.87;;;11.40;;
1136;SDS011;557;48.466;7.950;2022-09-09T16:03:02;12.40;;;11.90;;
1136;SDS011;557;48.466;7.950;2022-09-09T16:05:50;12.43;;;11.90;;
1136;SDS011;557;48.466;7.950;2022-09-09T16:08:38;12.77;;;12.17;;
1136;SDS011;557;48.466;7.950;2022-09-09T16:11:25;13.20;;;12.60;;
1136;SDS011;557;48.466;7.950;2022-09-09T16:14:12;12.23;;;11.70;;
1136;SDS011;557;48.466;7.950;2022-09-09T16:17:00;12.23;;;11.73;;
1136;SDS011;557;48.466;7.950;2022-09-09T16:19:46;12.30;;;11.70;;
1136;SDS011;557;48.466;7.950;2022-09-09T16:22:32;13.23;;;12.53;;
1136;SDS011;557;48.466;7.950;2022-09-09T16:25:17;11.60;;;11.10;;
1136;SDS011;557;48.466;7.950;2022-09-09T16:28:03;12.00;;;11.50;;
1136;SDS011;557;48.466;7.950;2022-09-09T16:30:48;12.00;;;11.50;;
1136;SDS011;557;48.466;7.950;2022-09-09T16:33:35;11.87;;;11.37;;
1136;SDS011;557;48.466;7.950;2022-09-09T16:36:22;11.93;;;11.43;;
1136;SDS011;557;48.466;7.950;2022-09-09T16:39:10;12.10;;;11.60;;
1136;SDS011;557;48.466;7.950;2022-09-09T16:41:56;12.13;;;11.63;;
1136;SDS011;557;48.466;7.950;2022-09-09T16:44:43;12.53;;;11.90;;
1136;SDS011;557;48.466;7.950;2022-09-09T16:47:29;12.43;;;11.80;;
1136;SDS011;557;48.466;7.950;2022-09-09T16:50:15;12.20;;;11.70;;
1136;SDS011;557;48.466;7.950;2022-09-09T16:53:01;12.23;;;11.73;;
1136;SDS011;557;48.466;7.950;2022-09-09T16:55:49;11.53;;;11.03;;
1136;SDS011;557;48.466;7.950;2022-09-09T16:58:35;12.37;;;11.43;;
1136;SDS011;557;48.466;7.950;2022-09-09T17:01:21;12.37;;;11.57;;
1136;SDS011;557;48.466;7.950;2022-09-09T17:04:09;12.13;;;11.63;;
1136;SDS011;557;48.466;7.950;2022-09-09T17:07:00;12.63;;;11.93;;
1136;SDS011;557;48.466;7.950;2022-09-09T17:09:46;13.87;;;12.87;;
1136;SDS011;557;48.466;7.950;2022-09-09T17:12:31;10.43;;;9.93;;
1136;SDS011;557;48.466;7.950;2022-09-09T17:15:19;11.97;;;11.47;;
1136;SDS011;557;48.466;7.950;2022-09-09T17:18:07;10.90;;;10.43;;
1136;SDS011;557;48.466;7.950;2022-09-09T17:20:53;11.63;;;11.03;;
1136;SDS011;557;48.466;7.950;2022-09-09T17:23:41;11.67;;;11.17;;
1136;SDS011;557;48.466;7.950;2022-09-09T17:26:27;11.70;;;11.13;;
1136;SDS011;557;48.466;7.950;2022-09-09T17:29:15;10.53;;;10.13;;
1136;SDS011;557;48.466;7.950;2022-09-09T17:32:01;11.07;;;10.60;;
1136;SDS011;557;48.466;7.950;2022-09-09T17:34:46;10.67;;;10.20;;
1136;SDS011;557;48.466;7.950;2022-09-09T17:37:32;11.63;;;11.13;;
1136;SDS011;557;48.466;7.950;2022-09-09T17:40:19;10.33;;;9.83;;
1136;SDS011;557;48.466;7.950;2022-09-09T17:43:05;10.63;;;10.13;;
1136;SDS011;557;48.466;7.950;2022-09-09T17:45:52;10.13;;;9.73;;
1136;SDS011;557;48.466;7.950;2022-09-09T17:48:38;10.00;;;9.60;;
1136;SDS011;557;48.466;7.950;2022-09-09T17:51:24;10.23;;;9.73;;